Time;durP1;ratioP1;P1;durP2;ratioP2;P2;SDS_P1;SDS_P2;PMS_P1;PMS_P2;Temp;Humidity;BMP_temperature;BMP_pressure;BME280_temperature;BME280_humidity;BME280_pressure;Samples;Min_cycle;Max_cycle;Signal;HPM_P1;HPM_P2
2022/06/10 00:00:52;;;;;;;0.70;0.70;;;16.20;99.90;;;;;;4083633;29;20058;-47
2022/06/10 00:03:15;;;;;;;0.60;0.60;;;16.10;99.90;;;;;;4087156;29;20414;-45
2022/06/10 00:05:37;;;;;;;0.60;0.60;;;16.00;99.90;;;;;;4096023;29;20085;-46
2022/06/10 00:07:58;;;;;;;0.60;0.60;;;16.10;99.90;;;;;;4097059;29;20058;-47
2022/06/10 00:10:24;;;;;;;0.85;0.60;;;16.10;99.90;;;;;;4096957;29;20113;-48
2022/06/10 00:12:47;;;;;;;0.60;0.60;;;16.10;99.90;;;;;;4087368;29;20089;-46
2022/06/10 00:15:09;;;;;;;1.50;0.60;;;16.10;99.90;;;;;;4096624;29;20960;-46
2022/06/10 00:17:30;;;;;;;1.55;0.60;;;16.10;99.90;;;;;;4086186;28;20317;-47
2022/06/10 00:19:51;;;;;;;2.08;0.60;;;16.10;99.90;;;;;;4096719;29;20053;-48
2022/06/10 00:22:14;;;;;;;;;;;16.20;99.90;;;;;;4096727;29;20134;-46
2022/06/10 00:24:35;;;;;;;2.85;1.05;;;16.20;99.90;;;;;;4096739;29;19949;-47
2022/06/10 00:26:56;;;;;;;0.60;0.60;;;16.20;99.90;;;;;;4096892;29;20118;-45
2022/06/10 00:29:18;;;;;;;0.77;0.60;;;16.10;99.90;;;;;;4095465;29;20054;-45
2022/06/10 00:31:38;;;;;;;0.60;0.60;;;16.00;99.90;;;;;;4096587;29;20162;-46
2022/06/10 00:33:59;;;;;;;0.60;0.60;;;15.90;99.90;;;;;;4097050;29;20137;-46
2022/06/10 00:36:22;;;;;;;0.60;0.60;;;15.90;99.90;;;;;;4080710;29;20059;-46
2022/06/10 00:38:42;;;;;;;0.57;0.57;;;15.80;99.90;;;;;;4090532;29;20128;-47
2022/06/10 00:41:04;;;;;;;0.60;0.60;;;15.80;99.90;;;;;;4096642;29;20120;-45
2022/06/10 00:43:29;;;;;;;2.22;0.60;;;15.80;99.90;;;;;;4096061;29;20058;-48
2022/06/10 00:46:06;;;;;;;0.60;0.60;;;15.80;99.90;;;;;;4096094;29;20100;-46
2022/06/10 00:48:35;;;;;;;0.60;0.60;;;15.80;99.90;;;;;;4096014;29;20058;-47
2022/06/10 00:50:59;;;;;;;0.60;0.60;;;15.80;99.90;;;;;;4096039;29;20521;-46
2022/06/10 00:53:26;;;;;;;0.60;0.60;;;15.90;99.90;;;;;;4096289;29;20138;-46
2022/06/10 00:55:52;;;;;;;0.60;0.60;;;16.10;99.90;;;;;;4080532;29;20074;-45
2022/06/10 00:58:40;;;;;;;1.05;0.60;;;16.10;99.90;;;;;;4091894;29;20054;-45
2022/06/10 01:01:04;;;;;;;0.60;0.60;;;16.30;99.90;;;;;;4095899;29;20058;-47
2022/06/10 01:03:25;;;;;;;0.60;0.60;;;16.30;99.90;;;;;;4096313;29;20113;-45
2022/06/10 01:05:46;;;;;;;0.60;0.60;;;16.30;99.90;;;;;;4096174;29;20585;-46
2022/06/10 01:08:13;;;;;;;0.60;0.60;;;16.50;99.90;;;;;;4096581;29;20058;-46
2022/06/10 01:10:54;;;;;;;0.60;0.60;;;16.60;99.90;;;;;;4095877;29;20050;-46
2022/06/10 01:13:35;;;;;;;0.57;0.57;;;16.60;99.90;;;;;;4085705;29;20478;-46
2022/06/10 01:16:28;;;;;;;0.60;0.60;;;16.80;99.90;;;;;;4096059;29;20097;-48
2022/06/10 01:19:04;;;;;;;0.70;0.70;;;16.90;99.90;;;;;;4096087;29;20097;-46
2022/06/10 01:21:28;;;;;;;0.55;0.55;;;17.00;99.90;;;;;;4080067;29;20062;-49
2022/06/10 01:24:11;;;;;;;0.60;0.60;;;17.00;99.90;;;;;;4080267;29;20411;-48
2022/06/10 01:30:38;;;;;;;0.90;0.60;;;17.00;99.90;;;;;;4095509;29;20309;-46
2022/06/10 01:33:08;;;;;;;0.98;0.60;;;17.00;99.90;;;;;;4095620;29;20054;-45
2022/06/10 01:35:58;;;;;;;0.60;0.60;;;17.00;99.90;;;;;;4095929;29;20081;-46
2022/06/10 01:38:47;;;;;;;1.15;0.63;;;17.10;99.90;;;;;;4096307;29;20058;-46
2022/06/10 01:41:50;;;;;;;0.60;0.60;;;17.10;99.90;;;;;;4095639;29;20073;-46
2022/06/10 01:44:19;;;;;;;0.68;0.68;;;17.00;99.90;;;;;;4091126;29;20101;-46
2022/06/10 01:47:11;;;;;;;0.60;0.60;;;17.10;99.90;;;;;;4079904;29;20131;-45
2022/06/10 01:49:56;;;;;;;0.57;0.57;;;17.10;99.90;;;;;;4109955;28;20065;-46
2022/06/10 01:52:36;;;;;;;0.60;0.60;;;16.90;99.90;;;;;;4095921;29;20063;-46
2022/06/10 01:55:06;;;;;;;0.60;0.60;;;16.90;99.90;;;;;;4095370;29;20089;-45
2022/06/10 01:57:40;;;;;;;0.60;0.60;;;16.80;99.90;;;;;;4095251;29;20093;-47
2022/06/10 02:00:12;;;;;;;0.60;0.60;;;16.80;99.90;;;;;;4095868;29;20406;-45
2022/06/10 02:02:37;;;;;;;0.73;0.60;;;16.90;99.90;;;;;;4079880;29;20054;-44
2022/06/10 02:05:04;;;;;;;1.60;0.60;;;17.00;99.90;;;;;;4090516;29;20582;-46
2022/06/10 02:07:33;;;;;;;0.60;0.60;;;16.90;99.90;;;;;;4094336;29;20406;-45
2022/06/10 02:10:02;;;;;;;2.25;0.60;;;17.10;99.90;;;;;;4095761;29;20457;-47
2022/06/10 02:12:39;;;;;;;0.60;0.60;;;17.10;99.90;;;;;;4165837;28;20087;-46
2022/06/10 02:15:40;;;;;;;0.60;0.60;;;17.10;99.90;;;;;;4102855;28;20406;-48
2022/06/10 02:18:15;;;;;;;0.60;0.60;;;17.20;99.90;;;;;;4094628;29;20047;-46
2022/06/10 02:20:41;;;;;;;0.65;0.65;;;17.10;99.90;;;;;;4095078;29;20053;-48
2022/06/10 02:23:05;;;;;;;0.75;0.75;;;17.10;99.90;;;;;;4094810;29;20069;-46
2022/06/10 02:25:37;;;;;;;0.60;0.60;;;17.00;99.90;;;;;;4095179;29;20062;-45
2022/06/10 02:28:04;;;;;;;0.60;0.60;;;17.00;99.90;;;;;;4079074;29;20058;-46
2022/06/10 02:30:48;;;;;;;0.65;0.60;;;16.90;99.90;;;;;;4089334;29;20066;-46
2022/06/10 02:33:11;;;;;;;1.48;0.60;;;17.00;99.90;;;;;;4095075;29;20185;-47
2022/06/10 02:36:04;;;;;;;0.60;0.60;;;16.90;99.90;;;;;;4094653;29;20414;-47
2022/06/10 02:38:51;;;;;;;2.83;0.70;;;16.90;99.90;;;;;;4095397;29;20093;-45
2022/06/10 02:41:28;;;;;;;0.60;0.60;;;16.80;99.90;;;;;;4113000;28;20616;-45
2022/06/10 02:44:05;;;;;;;0.60;0.60;;;16.80;99.90;;;;;;4095272;29;20058;-46
2022/06/10 02:46:37;;;;;;;2.30;0.60;;;16.70;99.90;;;;;;4084239;29;20126;-45
2022/06/10 02:49:10;;;;;;;0.60;0.60;;;16.60;99.90;;;;;;4084751;29;20432;-45
2022/06/10 02:51:32;;;;;;;0.80;0.80;;;16.70;99.90;;;;;;4079016;29;20066;-47
2022/06/10 02:53:53;;;;;;;1.45;0.60;;;16.60;99.90;;;;;;4094803;29;20058;-45
2022/06/10 02:56:21;;;;;;;0.60;0.60;;;16.70;99.90;;;;;;4094414;29;20050;-46
2022/06/10 03:01:52;;;;;;;0.55;0.55;;;16.80;99.90;;;;;;4094818;29;20093;-47
2022/06/10 03:04:32;;;;;;;0.60;0.60;;;16.80;99.90;;;;;;4094893;29;20446;-46
2022/06/10 03:07:21;;;;;;;0.60;0.60;;;16.80;99.90;;;;;;4094504;29;20113;-47
2022/06/10 03:10:12;;;;;;;0.60;0.60;;;16.80;99.90;;;;;;4078973;29;20054;-46
2022/06/10 03:13:06;;;;;;;0.63;0.60;;;16.80;99.90;;;;;;4172456;28;20128;-45
2022/06/10 03:15:30;;;;;;;0.60;0.60;;;16.80;99.90;;;;;;4108478;28;20047;-46
2022/06/10 03:18:12;;;;;;;0.75;0.60;;;16.70;99.90;;;;;;4093805;28;20075;-46
2022/06/10 03:20:49;;;;;;;0.63;0.63;;;16.70;99.90;;;;;;4094238;29;20146;-48
2022/06/10 03:23:26;;;;;;;0.60;0.60;;;16.70;99.90;;;;;;4094304;29;20469;-44
2022/06/10 03:26:04;;;;;;;0.60;0.60;;;16.70;99.90;;;;;;4078629;29;20162;-45
2022/06/10 03:28:25;;;;;;;0.63;0.60;;;16.70;99.90;;;;;;4092467;29;20168;-44
2022/06/10 03:30:57;;;;;;;0.60;0.60;;;16.60;99.90;;;;;;4094419;29;20526;-46
2022/06/10 03:33:25;;;;;;;0.60;0.60;;;16.60;99.90;;;;;;4094186;29;20059;-47
2022/06/10 03:36:16;;;;;;;0.50;0.50;;;16.50;99.90;;;;;;4094012;29;20070;-44
2022/06/10 03:38:56;;;;;;;1.17;0.60;;;16.60;99.90;;;;;;4094362;29;20322;-45
2022/06/10 03:41:32;;;;;;;0.70;0.70;;;16.60;99.90;;;;;;4093881;29;20058;-44
2022/06/10 03:43:56;;;;;;;0.60;0.60;;;16.50;99.90;;;;;;4092024;29;20058;-46
2022/06/10 03:46:22;;;;;;;1.50;0.60;;;16.60;99.90;;;;;;4094057;29;20057;-45
2022/06/10 03:48:45;;;;;;;0.60;0.60;;;16.70;99.90;;;;;;4094016;29;20135;-45
2022/06/10 03:51:10;;;;;;;0.60;0.60;;;16.80;99.90;;;;;;4078262;29;20503;-46
2022/06/10 03:53:32;;;;;;;0.60;0.60;;;16.80;99.90;;;;;;4089688;29;20086;-45
2022/06/10 03:55:58;;;;;;;2.05;0.60;;;16.80;99.90;;;;;;4094568;29;20085;-45
2022/06/10 03:58:20;;;;;;;0.77;0.70;;;16.90;99.90;;;;;;4094003;29;20098;-47
2022/06/10 04:00:42;;;;;;;0.60;0.60;;;16.80;99.90;;;;;;4086757;29;20295;-46
2022/06/10 04:03:04;;;;;;;0.60;0.60;;;16.80;99.90;;;;;;4093792;29;20050;-45
2022/06/10 04:05:26;;;;;;;2.75;0.60;;;17.10;99.90;;;;;;4094026;29;20109;-44
2022/06/10 04:07:48;;;;;;;0.60;0.60;;;17.10;99.90;;;;;;4094190;29;20049;-46
2022/06/10 04:10:14;;;;;;;0.77;0.70;;;17.10;99.90;;;;;;4077432;29;20541;-45
2022/06/10 04:12:36;;;;;;;0.60;0.60;;;17.10;99.90;;;;;;4116199;28;20525;-47
2022/06/10 04:14:58;;;;;;;0.60;0.60;;;17.30;99.90;;;;;;4089837;29;20055;-45
2022/06/10 04:17:20;;;;;;;0.60;0.60;;;17.30;99.90;;;;;;4084533;28;20063;-46
2022/06/10 04:19:41;;;;;;;0.60;0.60;;;17.30;99.90;;;;;;4076998;29;20111;-46
2022/06/10 04:22:04;;;;;;;0.60;0.60;;;17.30;99.90;;;;;;4087999;29;20415;-45
2022/06/10 04:24:26;;;;;;;0.50;0.50;;;17.40;99.90;;;;;;4093682;29;20735;-45
2022/06/10 04:26:47;;;;;;;0.60;0.60;;;17.40;99.90;;;;;;4093973;29;20090;-46
2022/06/10 04:29:11;;;;;;;0.60;0.60;;;17.50;99.90;;;;;;4093758;29;20305;-47
2022/06/10 04:31:34;;;;;;;0.60;0.60;;;17.50;99.90;;;;;;4093891;29;20279;-47
2022/06/10 04:33:56;;;;;;;0.60;0.60;;;17.40;99.90;;;;;;4093657;29;20050;-46
2022/06/10 04:36:19;;;;;;;0.60;0.60;;;17.40;99.90;;;;;;4093535;29;20820;-47
2022/06/10 04:38:41;;;;;;;0.60;0.60;;;17.30;99.90;;;;;;4093885;29;20054;-46
2022/06/10 04:41:06;;;;;;;1.05;0.60;;;17.30;99.90;;;;;;4090913;29;20050;-46
2022/06/10 04:43:27;;;;;;;0.60;0.60;;;17.20;99.90;;;;;;4093483;29;20053;-45
2022/06/10 04:45:52;;;;;;;0.60;0.60;;;17.20;99.90;;;;;;4093537;28;20130;-47
2022/06/10 04:48:14;;;;;;;0.60;0.60;;;17.20;99.90;;;;;;4096383;29;20050;-45
2022/06/10 04:50:36;;;;;;;0.60;0.60;;;17.20;99.90;;;;;;4096190;29;20094;-46
2022/06/10 04:52:59;;;;;;;1.55;0.60;;;17.20;99.90;;;;;;4096029;29;20126;-48
2022/06/10 04:55:22;;;;;;;0.60;0.60;;;17.20;99.90;;;;;;4096601;29;20054;-46
2022/06/10 04:57:43;;;;;;;0.60;0.60;;;17.20;99.90;;;;;;4096490;29;20138;-46
2022/06/10 05:00:08;;;;;;;0.60;0.60;;;17.20;99.90;;;;;;4095858;29;20046;-48
2022/06/10 05:02:29;;;;;;;0.50;0.50;;;17.20;99.90;;;;;;4096283;29;20053;-46
2022/06/10 05:04:51;;;;;;;0.60;0.60;;;17.20;99.90;;;;;;4096172;29;20108;-46
2022/06/10 05:07:16;;;;;;;0.60;0.60;;;17.30;99.90;;;;;;4095438;29;20529;-47
2022/06/10 05:09:38;;;;;;;0.60;0.60;;;17.30;99.90;;;;;;4096043;29;20529;-44
2022/06/10 05:11:59;;;;;;;1.27;0.50;;;17.40;99.90;;;;;;4143983;28;20111;-46
2022/06/10 05:14:22;;;;;;;0.60;0.60;;;17.40;99.90;;;;;;4095924;29;20470;-47
2022/06/10 05:16:44;;;;;;;0.57;0.57;;;17.40;99.90;;;;;;4082374;29;20574;-47
2022/06/10 05:19:05;;;;;;;0.55;0.55;;;17.50;99.90;;;;;;4087820;28;20495;-46
2022/06/10 05:21:27;;;;;;;0.63;0.60;;;17.50;99.90;;;;;;4095508;29;20058;-47
2022/06/10 05:23:49;;;;;;;0.50;0.50;;;17.40;99.90;;;;;;4095203;29;20423;-47
2022/06/10 05:26:16;;;;;;;0.50;0.50;;;17.50;99.90;;;;;;4094584;29;20427;-47
2022/06/10 05:28:39;;;;;;;0.50;0.50;;;17.50;99.90;;;;;;4095559;29;20382;-47
2022/06/10 05:31:01;;;;;;;0.60;0.60;;;17.50;99.90;;;;;;4096004;29;20116;-46
2022/06/10 05:33:23;;;;;;;0.50;0.50;;;17.60;99.90;;;;;;4096022;29;20109;-46
2022/06/10 05:35:46;;;;;;;0.50;0.50;;;17.60;99.90;;;;;;4079929;29;20106;-47
2022/06/10 05:38:07;;;;;;;0.85;0.50;;;17.60;99.90;;;;;;4079935;29;20055;-46
2022/06/10 05:40:31;;;;;;;0.50;0.50;;;17.70;99.90;;;;;;4079999;29;20051;-46
2022/06/10 05:42:54;;;;;;;0.60;0.60;;;17.90;99.90;;;;;;4090983;29;20125;-46
2022/06/10 05:45:17;;;;;;;0.50;0.50;;;17.90;99.90;;;;;;4096012;29;20935;-48
2022/06/10 05:47:41;;;;;;;1.45;0.60;;;18.10;99.90;;;;;;4095679;29;20352;-46
2022/06/10 05:50:14;;;;;;;1.00;0.50;;;18.20;99.90;;;;;;4095614;29;20050;-47
2022/06/10 05:52:35;;;;;;;0.55;0.55;;;18.30;99.90;;;;;;4095734;29;20112;-47
2022/06/10 05:55:01;;;;;;;1.65;0.50;;;18.30;99.90;;;;;;4095827;29;20054;-48
2022/06/10 05:57:25;;;;;;;0.75;0.50;;;18.40;99.90;;;;;;4095156;28;20058;-49
2022/06/10 05:59:47;;;;;;;1.85;0.50;;;18.50;99.90;;;;;;4095978;29;20110;-49
2022/06/10 06:02:10;;;;;;;0.50;0.50;;;18.50;99.90;;;;;;4096080;29;20410;-46
2022/06/10 06:04:33;;;;;;;1.05;0.50;;;18.60;99.90;;;;;;4087659;29;20062;-47
2022/06/10 06:06:55;;;;;;;0.50;0.50;;;18.60;99.90;;;;;;4079700;29;20139;-45
2022/06/10 06:09:17;;;;;;;1.27;0.60;;;18.60;99.90;;;;;;4079776;29;20078;-46
2022/06/10 06:11:43;;;;;;;0.50;0.50;;;18.60;99.90;;;;;;4131312;28;20047;-46
2022/06/10 06:14:04;;;;;;;0.50;0.50;;;18.60;99.90;;;;;;4178863;28;20413;-49
2022/06/10 06:16:54;;;;;;;0.50;0.50;;;18.60;99.90;;;;;;4178858;28;20120;-48
2022/06/10 06:19:17;;;;;;;0.60;0.60;;;18.60;99.90;;;;;;4108971;28;20304;-51
2022/06/10 06:21:39;;;;;;;0.50;0.50;;;18.60;99.90;;;;;;4108853;28;20057;-46
2022/06/10 06:24:03;;;;;;;0.50;0.50;;;18.70;99.90;;;;;;4108764;28;20433;-47
2022/06/10 06:26:24;;;;;;;0.57;0.57;;;18.90;99.90;;;;;;4190596;28;20054;-46
2022/06/10 06:28:47;;;;;;;0.50;0.50;;;19.00;99.90;;;;;;4209538;28;20074;-46
2022/06/10 06:31:10;;;;;;;0.57;0.50;;;19.10;99.90;;;;;;4202988;28;20083;-46
2022/06/10 06:33:32;;;;;;;0.50;0.50;;;19.00;99.90;;;;;;4192967;28;20170;-47
2022/06/10 06:35:54;;;;;;;0.57;0.57;;;19.10;99.90;;;;;;4192338;28;20111;-48
2022/06/10 06:38:16;;;;;;;0.93;0.50;;;19.30;99.90;;;;;;4179944;28;20505;-48
2022/06/10 06:40:40;;;;;;;0.50;0.50;;;19.60;99.90;;;;;;4181157;28;20662;-46
2022/06/10 06:43:02;;;;;;;0.50;0.50;;;19.80;99.90;;;;;;4194703;28;20551;-46
2022/06/10 06:45:25;;;;;;;1.00;0.70;;;20.00;99.90;;;;;;4176067;28;20263;-46
2022/06/10 06:47:54;;;;;;;0.70;0.50;;;20.00;99.90;;;;;;4188774;28;20122;-48
2022/06/10 06:50:18;;;;;;;0.50;0.50;;;20.40;99.90;;;;;;4189742;28;20088;-46
2022/06/10 06:52:43;;;;;;;0.40;0.40;;;20.30;99.80;;;;;;4175859;28;20116;-48
2022/06/10 06:55:04;;;;;;;0.50;0.50;;;20.30;99.30;;;;;;4175690;28;20102;-46
2022/06/10 06:57:27;;;;;;;1.17;0.40;;;20.40;99.40;;;;;;4091272;29;20313;-49
2022/06/10 06:59:48;;;;;;;0.50;0.40;;;20.50;99.60;;;;;;4094948;29;20089;-46
2022/06/10 07:02:10;;;;;;;2.03;0.50;;;20.50;97.70;;;;;;4095269;29;20131;-47
2022/06/10 07:04:32;;;;;;;7.90;0.40;;;20.10;97.90;;;;;;4079109;29;20131;-47
2022/06/10 07:06:53;;;;;;;0.95;0.40;;;20.00;97.60;;;;;;4078761;29;20562;-46
2022/06/10 07:09:15;;;;;;;0.40;0.40;;;19.80;98.30;;;;;;4082497;29;20533;-46
2022/06/10 07:11:38;;;;;;;0.43;0.43;;;19.80;98.80;;;;;;4132664;28;20060;-45
2022/06/10 07:14:06;;;;;;;0.50;0.50;;;19.70;98.40;;;;;;4078767;29;20082;-47
2022/06/10 07:16:27;;;;;;;0.50;0.50;;;19.60;99.60;;;;;;4079080;29;20145;-46
2022/06/10 07:18:52;;;;;;;0.50;0.50;;;19.50;99.50;;;;;;4078578;29;20081;-48
2022/06/10 07:21:13;;;;;;;1.23;0.50;;;19.40;99.90;;;;;;4079743;29;20299;-47
2022/06/10 07:23:35;;;;;;;0.50;0.50;;;19.10;99.90;;;;;;4094832;29;20105;-47
2022/06/10 07:26:02;;;;;;;0.50;0.50;;;18.80;99.90;;;;;;4094754;29;20317;-47
2022/06/10 07:28:24;;;;;;;0.50;0.50;;;18.60;99.90;;;;;;4094452;29;20131;-47
2022/06/10 07:30:47;;;;;;;0.50;0.50;;;18.60;99.90;;;;;;4094810;29;20086;-47
2022/06/10 07:33:09;;;;;;;0.50;0.50;;;18.60;99.90;;;;;;4094131;29;20088;-46
2022/06/10 07:35:32;;;;;;;;;;;18.60;99.90;;;;;;4093666;29;20423;-48
2022/06/10 07:37:54;;;;;;;4.05;1.05;;;18.60;99.90;;;;;;4094164;29;19949;-48
2022/06/10 07:43:28;;;;;;;0.73;0.50;;;18.70;99.90;;;;;;4094637;29;20141;-47
2022/06/10 07:45:51;;;;;;;0.60;0.60;;;18.60;99.90;;;;;;4094253;29;20073;-46
2022/06/10 07:48:12;;;;;;;0.50;0.50;;;18.60;99.90;;;;;;4094826;29;20057;-47
2022/06/10 07:50:34;;;;;;;0.50;0.50;;;18.60;99.90;;;;;;4094159;29;20089;-47
2022/06/10 07:52:56;;;;;;;3.00;0.60;;;18.60;99.90;;;;;;4094164;29;20069;-49
2022/06/10 07:55:20;;;;;;;1.35;0.50;;;18.50;99.90;;;;;;4094392;29;20057;-47
2022/06/10 07:57:42;;;;;;;0.50;0.50;;;18.50;99.90;;;;;;4094252;29;20058;-48
2022/06/10 08:00:04;;;;;;;0.50;0.50;;;18.50;99.90;;;;;;4094240;29;20047;-46
2022/06/10 08:02:25;;;;;;;2.38;0.60;;;18.50;99.90;;;;;;4093011;29;20057;-48
2022/06/10 08:04:48;;;;;;;0.50;0.50;;;18.50;99.90;;;;;;4094347;29;20525;-47
2022/06/10 08:07:10;;;;;;;0.65;0.60;;;18.40;99.90;;;;;;4093937;29;20077;-51
2022/06/10 08:09:36;;;;;;;1.27;0.50;;;18.40;99.90;;;;;;4093846;29;20097;-46
2022/06/10 08:11:58;;;;;;;0.60;0.60;;;18.30;99.90;;;;;;4120598;28;20126;-49
2022/06/10 08:14:20;;;;;;;0.50;0.50;;;18.40;99.90;;;;;;4094030;29;20050;-46
2022/06/10 08:16:42;;;;;;;0.60;0.60;;;18.50;99.90;;;;;;4078024;29;20067;-48
2022/06/10 08:19:04;;;;;;;0.50;0.50;;;18.80;99.90;;;;;;4091844;29;20097;-46
2022/06/10 08:24:06;;;;;;;0.57;0.57;;;19.10;99.90;;;;;;4096467;29;20533;-46
2022/06/10 08:26:28;;;;;;;0.50;0.50;;;19.00;99.90;;;;;;4080708;29;20062;-50
2022/06/10 08:28:50;;;;;;;0.60;0.60;;;18.80;99.90;;;;;;4093215;29;20058;-48
2022/06/10 08:31:12;;;;;;;0.60;0.60;;;18.80;99.90;;;;;;4090621;29;20537;-47
2022/06/10 08:33:34;;;;;;;0.60;0.60;;;18.90;99.90;;;;;;4080892;29;20459;-46
2022/06/10 08:35:56;;;;;;;0.50;0.50;;;18.90;99.90;;;;;;4080735;29;20062;-47
2022/06/10 08:38:18;;;;;;;0.60;0.60;;;19.00;99.90;;;;;;4080979;29;20055;-46
2022/06/10 08:41:03;;;;;;;0.50;0.50;;;19.00;99.90;;;;;;4080957;29;20530;-46
2022/06/10 08:43:43;;;;;;;0.60;0.60;;;19.20;99.90;;;;;;4085812;29;20094;-46
2022/06/10 08:46:19;;;;;;;0.50;0.50;;;19.10;99.90;;;;;;4096653;29;20070;-49
2022/06/10 08:49:22;;;;;;;0.65;0.50;;;18.90;99.90;;;;;;4096401;29;20150;-47
2022/06/10 08:51:44;;;;;;;0.50;0.50;;;18.80;99.90;;;;;;4096678;29;20053;-46
2022/06/10 08:54:19;;;;;;;0.63;0.60;;;18.70;99.90;;;;;;4096383;29;20498;-48
2022/06/10 08:56:51;;;;;;;1.38;0.60;;;18.80;99.90;;;;;;4096398;29;20109;-49
2022/06/10 08:59:20;;;;;;;0.60;0.60;;;18.80;99.90;;;;;;4096396;29;20058;-47
2022/06/10 09:02:14;;;;;;;0.50;0.50;;;18.80;99.90;;;;;;4096267;29;20050;-48
2022/06/10 09:05:07;;;;;;;0.60;0.60;;;18.80;99.90;;;;;;4096220;29;20135;-47
2022/06/10 09:07:41;;;;;;;;;;;18.90;99.90;;;;;;4096767;29;20085;-46
2022/06/10 09:10:07;;;;;;;0.50;0.50;;;19.00;99.90;;;;;;4096463;29;19938;-46
2022/06/10 09:12:50;;;;;;;2.17;0.60;;;19.00;99.90;;;;;;4171642;28;20130;-46
2022/06/10 09:15:13;;;;;;;;;;;18.90;99.90;;;;;;4110444;28;20151;-45
2022/06/10 09:17:48;;;;;;;0.52;0.52;;;19.00;99.90;;;;;;4095769;29;19929;-46
2022/06/10 09:20:31;;;;;;;0.60;0.60;;;18.90;99.90;;;;;;4095885;29;20454;-47
2022/06/10 09:23:25;;;;;;;1.88;0.60;;;19.00;99.90;;;;;;4095828;29;20066;-47
2022/06/10 09:25:51;;;;;;;0.60;0.60;;;19.00;99.90;;;;;;4096030;29;20116;-47
2022/06/10 09:28:14;;;;;;;0.60;0.60;;;19.10;99.90;;;;;;4095650;29;20121;-46
2022/06/10 09:30:52;;;;;;;1.30;0.50;;;19.10;99.90;;;;;;4090210;29;20058;-46
2022/06/10 09:33:32;;;;;;;1.00;0.50;;;19.20;99.90;;;;;;4082448;28;20059;-46
2022/06/10 09:36:10;;;;;;;0.60;0.60;;;19.20;99.90;;;;;;4179396;28;20138;-47
2022/06/10 09:38:48;;;;;;;0.50;0.50;;;19.20;99.90;;;;;;4080159;29;20149;-47
2022/06/10 09:41:48;;;;;;;0.50;0.50;;;19.30;99.90;;;;;;4093234;29;20121;-47
2022/06/10 09:44:19;;;;;;;0.50;0.50;;;19.30;99.90;;;;;;4082898;29;20059;-46
2022/06/10 09:47:03;;;;;;;0.50;0.50;;;19.30;99.90;;;;;;4086509;29;20457;-47
2022/06/10 09:49:49;;;;;;;0.50;0.50;;;19.40;99.90;;;;;;4095457;29;20108;-48
2022/06/10 09:52:32;;;;;;;0.50;0.50;;;19.40;99.80;;;;;;4095766;29;20050;-47
2022/06/10 09:55:28;;;;;;;1.98;0.50;;;19.40;99.90;;;;;;4080266;29;20063;-46
2022/06/10 09:58:11;;;;;;;0.50;0.50;;;19.40;99.90;;;;;;4079490;29;20114;-46
2022/06/10 10:00:52;;;;;;;0.50;0.50;;;19.40;99.90;;;;;;4095130;29;20104;-47
2022/06/10 10:03:32;;;;;;;1.10;0.50;;;19.40;99.90;;;;;;4095209;29;20158;-47
2022/06/10 10:06:03;;;;;;;0.50;0.50;;;19.40;99.90;;;;;;4095805;29;20113;-48
2022/06/10 10:08:47;;;;;;;0.50;0.50;;;19.40;99.30;;;;;;4093345;29;20065;-47
2022/06/10 10:11:40;;;;;;;0.50;0.50;;;19.40;99.10;;;;;;4091667;29;20057;-46
2022/06/10 10:14:06;;;;;;;0.50;0.50;;;19.40;99.90;;;;;;4094154;29;20701;-47
2022/06/10 10:16:31;;;;;;;0.50;0.50;;;19.30;99.90;;;;;;4094034;29;20053;-46
2022/06/10 10:19:14;;;;;;;0.50;0.50;;;19.30;98.90;;;;;;4089799;29;20465;-47
2022/06/10 10:21:42;;;;;;;0.50;0.50;;;19.30;99.10;;;;;;4088192;29;20043;-45
2022/06/10 10:24:10;;;;;;;0.50;0.50;;;19.40;99.30;;;;;;4091554;29;20054;-47
2022/06/10 10:26:38;;;;;;;0.50;0.50;;;19.40;99.90;;;;;;4093655;29;20112;-46
2022/06/10 10:29:16;;;;;;;1.17;0.50;;;19.40;99.10;;;;;;4095361;29;20086;-45
2022/06/10 10:32:04;;;;;;;0.50;0.50;;;19.50;99.80;;;;;;4090369;29;20117;-46
2022/06/10 10:34:31;;;;;;;0.50;0.50;;;19.60;99.50;;;;;;4079545;29;20070;-48
2022/06/10 10:36:58;;;;;;;0.50;0.50;;;19.50;99.90;;;;;;4092171;29;20403;-48
2022/06/10 10:39:34;;;;;;;0.50;0.50;;;19.50;99.50;;;;;;4093684;29;20092;-46
2022/06/10 10:42:03;;;;;;;0.50;0.50;;;19.40;99.00;;;;;;4093321;29;20132;-45
2022/06/10 10:44:26;;;;;;;0.50;0.50;;;19.50;99.20;;;;;;4091563;28;20066;-46
2022/06/10 10:47:19;;;;;;;0.50;0.50;;;19.50;98.90;;;;;;4082436;29;20386;-46
2022/06/10 10:49:46;;;;;;;0.43;0.43;;;19.50;99.40;;;;;;4086018;29;20097;-48
2022/06/10 10:52:24;;;;;;;0.50;0.50;;;19.60;99.60;;;;;;4088393;29;20105;-47
2022/06/10 10:54:48;;;;;;;0.50;0.50;;;19.70;99.90;;;;;;4088584;29;20128;-46
2022/06/10 10:57:21;;;;;;;0.50;0.50;;;19.70;99.90;;;;;;4083745;29;20120;-46
2022/06/10 10:59:44;;;;;;;0.50;0.50;;;19.70;99.10;;;;;;4088590;29;20902;-49
2022/06/10 11:02:54;;;;;;;0.70;0.50;;;19.70;99.00;;;;;;4084986;29;20597;-48
2022/06/10 11:05:37;;;;;;;1.05;0.50;;;19.70;98.90;;;;;;4145818;28;20449;-45
2022/06/10 11:08:04;;;;;;;0.50;0.50;;;19.80;98.80;;;;;;4165024;28;20064;-47
2022/06/10 11:10:26;;;;;;;0.50;0.50;;;19.80;99.00;;;;;;4145616;28;20045;-47
2022/06/10 11:12:50;;;;;;;0.50;0.50;;;19.90;99.10;;;;;;4159031;28;20480;-45
2022/06/10 11:15:28;;;;;;;0.50;0.50;;;20.00;98.30;;;;;;4148918;28;20049;-50
2022/06/10 11:17:50;;;;;;;0.50;0.50;;;19.90;97.70;;;;;;4152516;28;20580;-47
2022/06/10 11:20:22;;;;;;;0.73;0.50;;;20.00;97.90;;;;;;4144239;28;20516;-49
2022/06/10 11:22:46;;;;;;;0.50;0.50;;;20.00;98.00;;;;;;4160215;28;20144;-46
2022/06/10 11:25:14;;;;;;;0.50;0.50;;;20.10;97.80;;;;;;4152178;28;20612;-48
2022/06/10 11:27:41;;;;;;;0.50;0.50;;;20.10;97.40;;;;;;4167708;28;20060;-47
2022/06/10 11:30:20;;;;;;;0.50;0.50;;;20.20;97.50;;;;;;4148779;28;20103;-47
2022/06/10 11:32:48;;;;;;;0.50;0.50;;;20.30;97.50;;;;;;4155308;28;20048;-45
2022/06/10 11:35:28;;;;;;;0.40;0.40;;;20.50;97.80;;;;;;4158254;28;20183;-46
2022/06/10 11:37:54;;;;;;;1.15;0.50;;;20.60;97.20;;;;;;4157578;28;20111;-46
2022/06/10 11:40:28;;;;;;;0.57;0.40;;;20.70;98.80;;;;;;4157358;28;20172;-47
2022/06/10 11:43:01;;;;;;;0.45;0.45;;;20.80;97.20;;;;;;4155952;28;20129;-46
2022/06/10 11:45:28;;;;;;;0.50;0.50;;;20.80;96.70;;;;;;4151369;28;20084;-46
2022/06/10 11:48:16;;;;;;;0.40;0.40;;;20.70;96.70;;;;;;4147012;28;20056;-48
2022/06/10 11:50:46;;;;;;;0.40;0.40;;;20.60;95.80;;;;;;4161041;28;20100;-46
2022/06/10 11:53:18;;;;;;;0.40;0.40;;;20.80;97.30;;;;;;4159661;28;20051;-45
2022/06/10 11:55:42;;;;;;;5.53;0.50;;;21.00;96.20;;;;;;4165616;28;20056;-48
2022/06/10 12:01:22;;;;;;;;;;;21.20;95.90;;;;;;4144825;28;20085;-49
2022/06/10 12:03:52;;;;;;;0.47;0.45;;;21.40;95.60;;;;;;4156225;28;19971;-47
2022/06/10 12:06:27;;;;;;;0.40;0.40;;;21.40;96.50;;;;;;4160800;28;20123;-45
2022/06/10 12:08:54;;;;;;;0.40;0.40;;;21.50;96.30;;;;;;4160863;28;20060;-47
2022/06/10 12:11:44;;;;;;;1.17;0.50;;;21.30;94.00;;;;;;4144440;28;20159;-48
2022/06/10 12:14:31;;;;;;;0.40;0.40;;;21.30;93.90;;;;;;4144640;28;20056;-47
2022/06/10 12:17:28;;;;;;;0.43;0.43;;;21.30;94.40;;;;;;4143533;28;20510;-47
2022/06/10 12:20:06;;;;;;;0.40;0.40;;;21.30;94.90;;;;;;4160881;28;20060;-47
2022/06/10 12:22:28;;;;;;;0.40;0.40;;;21.40;93.70;;;;;;4161385;28;20754;-50
2022/06/10 12:24:50;;;;;;;;;;;21.50;94.00;;;;;;4160936;28;20052;-48
2022/06/10 12:27:24;;;;;;;0.68;0.50;;;21.40;94.60;;;;;;4160608;28;19971;-45
2022/06/10 12:30:02;;;;;;;0.40;0.40;;;21.50;94.20;;;;;;4160463;28;20055;-47
2022/06/10 12:33:01;;;;;;;1.08;0.40;;;21.90;94.80;;;;;;4160804;28;20134;-46
2022/06/10 12:35:28;;;;;;;0.40;0.40;;;22.00;93.00;;;;;;4129319;28;20070;-46
2022/06/10 12:37:56;;;;;;;0.40;0.40;;;22.00;93.80;;;;;;4077887;29;20066;-49
2022/06/10 12:40:57;;;;;;;0.40;0.40;;;22.00;92.30;;;;;;4089546;29;20061;-47
2022/06/10 12:43:22;;;;;;;0.40;0.40;;;22.00;93.20;;;;;;4118847;28;20426;-45
2022/06/10 12:45:58;;;;;;;0.50;0.50;;;22.00;92.70;;;;;;4080506;29;20085;-47
2022/06/10 12:48:28;;;;;;;1.08;0.40;;;22.30;93.70;;;;;;4093870;29;20517;-45
2022/06/10 12:50:50;;;;;;;0.40;0.40;;;22.50;93.50;;;;;;4092817;29;20085;-44
2022/06/10 12:53:17;;;;;;;0.70;0.40;;;22.50;92.70;;;;;;4080727;29;20149;-45
2022/06/10 12:55:50;;;;;;;0.40;0.40;;;22.40;92.20;;;;;;4083234;29;20058;-45
2022/06/10 12:58:40;;;;;;;0.45;0.45;;;22.30;91.70;;;;;;4093394;29;20059;-45
2022/06/10 13:01:17;;;;;;;0.40;0.40;;;22.30;91.60;;;;;;4078119;29;20467;-48
2022/06/10 13:03:40;;;;;;;0.40;0.40;;;22.50;92.10;;;;;;4077976;29;20058;-45
2022/06/10 13:06:06;;;;;;;0.40;0.40;;;22.90;93.20;;;;;;4089904;29;20490;-46
2022/06/10 13:08:40;;;;;;;0.30;0.30;;;23.30;93.20;;;;;;4094416;29;20058;-46
2022/06/10 13:11:06;;;;;;;0.30;0.30;;;23.60;92.20;;;;;;4103718;28;20566;-46
2022/06/10 13:13:28;;;;;;;2.38;0.38;;;23.70;92.20;;;;;;4095686;29;20562;-46
2022/06/10 13:15:51;;;;;;;;;;;23.80;91.70;;;;;;4096243;29;20096;-46